Time;durP1;ratioP1;P1;durP2;ratioP2;P2;SDS_P1;SDS_P2;PMS_P1;PMS_P2;Temp;Humidity;BMP_temperature;BMP_pressure;BME280_temperature;BME280_humidity;BME280_pressure;Samples;Min_cycle;Max_cycle;Signal;HPM_P1;HPM_P2
2023/01/21 00:00:39;;;;;;;34.97;16.20;;;;;;;0.71;100.00;102249.22;7394122;19;20427;-56
2023/01/21 00:03:11;;;;;;;32.87;15.13;;;;;;;0.79;100.00;102256.03;7390875;19;20414;-56
2023/01/21 00:05:41;;;;;;;39.77;16.47;;;;;;;0.75;100.00;102258.06;7393280;19;20403;-59
2023/01/21 00:08:10;;;;;;;45.33;15.90;;;;;;;0.70;100.00;102266.84;7390704;19;20425;-60
2023/01/21 00:10:40;;;;;;;32.20;15.30;;;;;;;0.69;100.00;102262.50;7393659;19;20407;-60
2023/01/21 00:13:09;;;;;;;37.43;15.77;;;;;;;0.65;100.00;102264.72;7391124;19;20427;-60
2023/01/21 00:15:41;;;;;;;41.90;16.80;;;;;;;0.62;100.00;102269.47;7392287;19;21110;-57
2023/01/21 00:18:11;;;;;;;36.47;16.23;;;;;;;0.59;100.00;102264.09;7390882;19;20421;-57
2023/01/21 00:20:40;;;;;;;32.50;14.83;;;;;;;0.52;100.00;102275.22;7393575;19;20419;-57
2023/01/21 00:23:10;;;;;;;41.80;16.60;;;;;;;0.60;100.00;102270.97;7389892;19;20422;-60
2023/01/21 00:25:39;;;;;;;44.10;17.88;;;;;;;0.58;100.00;102272.44;7392768;19;20407;-57
2023/01/21 00:28:10;;;;;;;37.70;15.93;;;;;;;0.63;100.00;102273.84;7390974;19;20190;-58
2023/01/21 00:30:42;;;;;;;39.60;17.33;;;;;;;0.62;100.00;102266.94;7393370;19;20411;-59
2023/01/21 00:33:12;;;;;;;38.72;16.30;;;;;;;0.56;100.00;102271.34;7390632;19;20826;-59
2023/01/21 00:35:41;;;;;;;37.50;15.70;;;;;;;0.41;100.00;102273.16;7392422;19;20135;-55
2023/01/21 00:38:10;;;;;;;39.53;15.93;;;;;;;0.37;100.00;102266.84;7389886;19;20186;-59
2023/01/21 00:40:41;;;;;;;36.85;16.48;;;;;;;0.38;100.00;102273.75;7392808;19;20142;-58
2023/01/21 00:43:11;;;;;;;38.95;16.10;;;;;;;0.39;100.00;102274.66;7389611;19;20220;-59
2023/01/21 00:45:43;;;;;;;36.70;15.57;;;;;;;0.34;100.00;102270.69;7392348;19;20135;-56
2023/01/21 00:48:12;;;;;;;32.60;14.27;;;;;;;0.38;100.00;102278.84;7390110;19;20435;-56
2023/01/21 00:50:41;;;;;;;36.93;15.90;;;;;;;0.45;100.00;102274.41;7392245;19;20392;-58
2023/01/21 00:53:11;;;;;;;36.83;16.55;;;;;;;0.35;100.00;102273.41;7386031;19;20427;-58
2023/01/21 00:55:40;;;;;;;40.97;15.70;;;;;;;0.36;100.00;102279.41;7388533;19;20164;-58
2023/01/21 00:58:10;;;;;;;39.43;15.53;;;;;;;0.39;100.00;102278.09;7386399;19;20394;-58
2023/01/21 01:00:39;;;;;;;35.42;15.73;;;;;;;0.37;100.00;102289.72;7388929;19;20399;-56
2023/01/21 01:03:11;;;;;;;33.67;14.88;;;;;;;0.40;100.00;102290.06;7385656;19;20605;-56
2023/01/21 01:05:41;;;;;;;38.20;16.02;;;;;;;0.33;100.00;102290.13;7394989;19;20127;-60
2023/01/21 01:08:10;;;;;;;32.00;14.47;;;;;;;0.36;100.00;102287.91;7392754;19;20194;-57
2023/01/21 01:10:40;;;;;;;40.33;16.03;;;;;;;0.33;100.00;102290.13;7399154;19;20399;-57
2023/01/21 01:13:09;;;;;;;41.60;16.77;;;;;;;0.26;100.00;102301.25;7393339;19;20426;-56
2023/01/21 01:15:38;;;;;;;33.73;16.10;;;;;;;0.10;100.00;102308.84;7394934;19;20391;-56
2023/01/21 01:18:09;;;;;;;36.70;15.97;;;;;;;0.01;100.00;102301.88;7393911;19;20847;-59
2023/01/21 01:20:44;;;;;;;33.10;14.65;;;;;;;0.02;100.00;102307.13;7396169;19;20402;-57
2023/01/21 01:23:13;;;;;;;30.93;13.53;;;;;;;0.08;100.00;102310.31;7391921;19;20217;-54
2023/01/21 01:25:42;;;;;;;34.73;14.63;;;;;;;0.16;100.00;102318.78;7395074;19;20390;-59
2023/01/21 01:28:12;;;;;;;38.53;16.90;;;;;;;0.15;100.00;102327.09;7392725;19;20767;-59
2023/01/21 01:30:41;;;;;;;27.88;14.10;;;;;;;0.15;100.00;102333.84;7395381;19;20456;-60
2023/01/21 01:33:11;;;;;;;32.83;15.23;;;;;;;0.03;100.00;102339.38;7392824;19;20194;-60
2023/01/21 01:35:45;;;;;;;30.40;15.02;;;;;;;0.02;100.00;102347.72;7394687;19;20137;-60
2023/01/21 01:38:15;;;;;;;32.90;14.97;;;;;;;0.09;100.00;102342.59;7392646;19;20242;-58
2023/01/21 01:40:45;;;;;;;43.10;16.13;;;;;;;0.16;100.00;102345.78;7395262;19;20396;-57
2023/01/21 01:43:19;;;;;;;35.50;16.50;;;;;;;0.23;100.00;102343.19;7391811;19;20452;-59
2023/01/21 01:45:49;;;;;;;35.40;14.87;;;;;;;0.32;100.00;102349.28;7394076;19;20395;-57
2023/01/21 01:48:21;;;;;;;33.47;15.18;;;;;;;0.27;100.00;102360.56;7392701;19;20422;-58
2023/01/21 01:50:53;;;;;;;31.83;14.95;;;;;;;0.30;100.00;102363.44;7395090;19;20129;-56
2023/01/21 01:53:23;;;;;;;38.20;16.00;;;;;;;0.29;100.00;102365.81;7391374;19;20973;-59
2023/01/21 01:55:53;;;;;;;34.10;15.37;;;;;;;0.23;100.00;102363.50;7393688;19;20410;-59
2023/01/21 01:58:24;;;;;;;32.00;14.63;;;;;;;0.16;100.00;102366.09;7392040;19;20419;-58
2023/01/21 02:00:53;;;;;;;29.53;14.70;;;;;;;0.02;100.00;102365.50;7394261;19;20380;-57
2023/01/21 02:06:08;;;;;;;31.53;15.47;;;;;;;0.09;100.00;102370.50;7393195;19;20391;-58
2023/01/21 02:08:38;;;;;;;45.63;18.87;;;;;;;0.31;100.00;102364.34;7388928;19;20981;-57
2023/01/21 02:11:14;;;;;;;37.93;16.10;;;;;;;0.87;100.00;102358.47;7397436;19;20415;-57
2023/01/21 02:13:45;;;;;;;37.57;16.70;;;;;;;0.92;100.00;102352.25;7394475;19;20423;-57
2023/01/21 02:16:37;;;;;;;46.10;19.50;;;;;;;0.86;100.00;102350.72;7395359;19;20426;-55
2023/01/21 02:19:25;;;;;;;34.13;16.00;;;;;;;0.77;100.00;102350.63;7394460;19;20431;-60
2023/01/21 02:22:02;;;;;;;38.65;17.20;;;;;;;0.90;100.00;102355.38;7396931;19;20414;-58
2023/01/21 02:25:07;;;;;;;38.30;17.10;;;;;;;0.70;100.00;102360.84;7394015;19;20550;-58
2023/01/21 02:27:49;;;;;;;35.23;16.17;;;;;;;1.24;100.00;102358.97;7391404;19;20451;-59
2023/01/21 02:30:35;;;;;;;36.73;17.23;;;;;;;1.35;100.00;102348.25;7397223;19;20400;-60
2023/01/21 02:33:33;;;;;;;38.57;17.23;;;;;;;1.37;100.00;102357.72;7393460;19;20448;-58
2023/01/21 02:36:16;;;;;;;37.67;16.10;;;;;;;1.18;100.00;102364.28;7395552;19;21165;-58
2023/01/21 02:38:51;;;;;;;39.73;17.40;;;;;;;1.18;100.00;102366.81;7393309;19;20422;-57
2023/01/21 02:41:25;;;;;;;38.77;16.07;;;;;;;0.91;100.00;102370.78;7396726;19;20398;-60
2023/01/21 02:44:02;;;;;;;38.57;17.27;;;;;;;1.28;100.00;102368.69;7393350;19;20426;-59
2023/01/21 02:46:38;;;;;;;38.80;16.43;;;;;;;1.28;100.00;102372.91;7395907;19;20853;-57
2023/01/21 02:49:14;;;;;;;36.77;16.13;;;;;;;1.55;100.00;102384.16;7393513;19;20439;-58
2023/01/21 02:51:48;;;;;;;36.53;17.27;;;;;;;1.45;100.00;102388.25;7395192;19;20383;-58
2023/01/21 02:54:38;;;;;;;35.13;15.70;;;;;;;1.25;100.00;102408.16;7393544;19;20475;-57
2023/01/21 02:57:08;;;;;;;41.67;17.97;;;;;;;1.45;100.00;102406.06;7393940;19;20422;-58
2023/01/21 02:59:38;;;;;;;33.20;15.67;;;;;;;1.38;100.00;102410.38;7394188;19;20465;-58
2023/01/21 03:02:14;;;;;;;38.30;15.87;;;;;;;1.32;100.00;102419.16;7395234;19;20411;-56
2023/01/21 03:05:02;;;;;;;37.27;16.40;;;;;;;1.29;100.00;102425.56;7393591;19;20446;-57
2023/01/21 03:07:35;;;;;;;38.23;18.80;;;;;;;1.48;100.00;102429.31;7391679;19;20442;-58
2023/01/21 03:10:08;;;;;;;38.57;17.73;;;;;;;1.25;100.00;102436.13;7394887;19;20399;-57
2023/01/21 03:12:40;;;;;;;38.40;17.80;;;;;;;1.54;100.00;102428.16;7393693;19;20406;-60
2023/01/21 03:17:57;;;;;;;39.23;16.37;;;;;;;1.24;100.00;102447.06;7391886;19;20459;-57
2023/01/21 03:20:32;;;;;;;35.00;15.73;;;;;;;1.10;100.00;102454.13;7395543;19;20400;-57
2023/01/21 03:23:05;;;;;;;38.43;17.43;;;;;;;1.17;100.00;102446.41;7392081;19;20461;-58
2023/01/21 03:25:36;;;;;;;36.43;16.87;;;;;;;1.26;100.00;102449.03;7394191;19;20411;-57
2023/01/21 03:28:09;;;;;;;39.17;18.90;;;;;;;0.97;100.00;102453.53;7389939;19;20427;-58
2023/01/21 03:30:42;;;;;;;36.97;16.33;;;;;;;0.76;100.00;102458.06;7394261;19;21361;-58
2023/01/21 03:33:13;;;;;;;38.87;17.23;;;;;;;0.65;100.00;102467.06;7392042;19;20427;-58
2023/01/21 03:35:47;;;;;;;37.97;16.93;;;;;;;0.87;100.00;102460.16;7393435;19;20418;-57
2023/01/21 03:38:20;;;;;;;40.07;16.53;;;;;;;0.78;100.00;102456.63;7391873;19;20432;-60
2023/01/21 03:40:53;;;;;;;36.33;17.20;;;;;;;0.86;100.00;102460.88;7394455;19;20470;-56
2023/01/21 03:43:22;;;;;;;39.53;15.50;;;;;;;0.67;100.00;102463.09;7392104;19;21116;-57
2023/01/21 03:45:55;;;;;;;41.97;18.90;;;;;;;0.96;100.00;102456.81;7392401;19;20436;-60
2023/01/21 03:48:28;;;;;;;38.40;17.43;;;;;;;0.80;100.00;102468.75;7392188;19;20530;-59
2023/01/21 03:51:04;;;;;;;45.70;18.63;;;;;;;0.78;100.00;102469.34;7393779;19;20404;-59
2023/01/21 03:53:33;;;;;;;39.63;17.40;;;;;;;1.05;100.00;102465.41;7392370;19;20777;-59
2023/01/21 03:56:03;;;;;;;40.63;17.67;;;;;;;1.01;100.00;102468.38;7393154;19;20399;-60
2023/01/21 03:58:32;;;;;;;41.47;18.70;;;;;;;0.81;100.00;102464.56;7392102;19;20502;-57
2023/01/21 04:01:02;;;;;;;40.00;16.20;;;;;;;0.78;100.00;102474.41;7393507;19;20750;-58
2023/01/21 04:03:31;;;;;;;40.50;18.90;;;;;;;0.66;100.00;102467.25;7391881;19;20435;-56
2023/01/21 04:06:03;;;;;;;43.43;17.33;;;;;;;0.64;100.00;102461.13;7391224;19;20748;-57
2023/01/21 04:08:33;;;;;;;43.90;18.53;;;;;;;0.69;100.00;102458.16;7391599;19;20418;-57
2023/01/21 04:11:02;;;;;;;41.07;19.00;;;;;;;0.86;100.00;102460.00;7393620;19;20931;-57
2023/01/21 04:13:31;;;;;;;42.80;17.57;;;;;;;0.75;100.00;102459.72;7391873;19;20431;-58
2023/01/21 04:16:01;;;;;;;47.07;18.30;;;;;;;0.73;100.00;102460.31;7392156;19;20513;-60
2023/01/21 04:18:30;;;;;;;43.60;17.80;;;;;;;0.82;100.00;102460.41;7391270;19;20427;-59
2023/01/21 04:21:00;;;;;;;40.80;17.83;;;;;;;0.93;100.00;102460.81;7393298;19;20398;-55
2023/01/21 04:23:32;;;;;;;40.57;17.67;;;;;;;0.89;100.00;102466.31;7391277;19;20439;-54
2023/01/21 04:26:02;;;;;;;41.03;18.60;;;;;;;0.87;100.00;102465.22;7391289;19;20431;-59
2023/01/21 04:28:31;;;;;;;45.73;19.53;;;;;;;0.79;100.00;102476.22;7391474;19;20969;-59
2023/01/21 04:31:01;;;;;;;46.93;18.97;;;;;;;0.78;100.00;102469.34;7393160;19;20421;-59
2023/01/21 04:33:31;;;;;;;47.40;19.60;;;;;;;0.74;100.00;102467.19;7391600;19;20422;-59
2023/01/21 04:36:00;;;;;;;46.13;18.10;;;;;;;0.80;100.00;102461.13;7392371;19;20404;-57
2023/01/21 04:38:32;;;;;;;43.30;19.10;;;;;;;0.90;100.00;102457.97;7390684;19;20806;-56
2023/01/21 04:41:02;;;;;;;50.10;19.27;;;;;;;0.94;100.00;102461.72;7400332;19;20387;-57
2023/01/21 04:43:31;;;;;;;41.80;18.93;;;;;;;0.94;100.00;102461.72;7398000;19;20454;-59
2023/01/21 04:46:01;;;;;;;43.23;19.43;;;;;;;0.95;100.00;102463.53;7397825;19;20399;-57
2023/01/21 04:48:30;;;;;;;38.00;16.63;;;;;;;0.85;100.00;102461.63;7397811;19;20828;-60
2023/01/21 04:51:00;;;;;;;45.40;18.70;;;;;;;0.85;100.00;102464.19;7399544;19;20404;-56
2023/01/21 04:53:32;;;;;;;49.83;20.67;;;;;;;0.74;100.00;102464.63;7397630;19;20450;-58
2023/01/21 04:56:02;;;;;;;44.07;18.43;;;;;;;0.78;100.00;102464.25;7399024;19;20818;-59
2023/01/21 04:58:31;;;;;;;43.97;18.70;;;;;;;0.77;100.00;102465.00;7398042;19;20435;-60
2023/01/21 05:01:00;;;;;;;42.23;18.93;;;;;;;0.93;100.00;102465.91;7399238;19;20400;-59
2023/01/21 05:03:30;;;;;;;42.40;17.83;;;;;;;0.84;100.00;102464.00;7397726;19;20434;-59
2023/01/21 05:05:59;;;;;;;42.90;19.10;;;;;;;0.99;100.00;102455.50;7397465;19;20391;-55
2023/01/21 05:08:29;;;;;;;44.93;18.67;;;;;;;0.97;100.00;102471.31;7396834;19;20430;-55
2023/01/21 05:11:01;;;;;;;46.07;19.33;;;;;;;1.00;100.00;102461.47;7399275;19;20779;-56
2023/01/21 05:13:30;;;;;;;40.07;17.53;;;;;;;0.99;100.00;102472.38;7397693;19;20447;-59
2023/01/21 05:16:07;;;;;;;46.33;18.53;;;;;;;1.01;100.00;102470.91;7398238;19;20404;-57
2023/01/21 05:18:36;;;;;;;45.20;19.67;;;;;;;0.83;100.00;102480.91;7395755;19;20418;-60
2023/01/21 05:21:07;;;;;;;46.27;20.10;;;;;;;0.86;100.00;102483.75;7399191;19;20540;-57
2023/01/21 05:23:36;;;;;;;41.63;18.37;;;;;;;0.90;100.00;102480.84;7395257;19;20429;-59
2023/01/21 05:26:08;;;;;;;51.20;19.67;;;;;;;0.80;100.00;102488.19;7396536;19;20399;-57
2023/01/21 05:28:38;;;;;;;49.50;18.73;;;;;;;0.83;100.00;102490.16;7395572;19;21142;-55
2023/01/21 05:31:07;;;;;;;45.40;18.53;;;;;;;0.91;100.00;102490.25;7399040;19;20786;-58
2023/01/21 05:33:37;;;;;;;45.50;19.90;;;;;;;1.02;100.00;102491.41;7395636;19;20437;-58
2023/01/21 05:36:08;;;;;;;43.97;18.43;;;;;;;1.34;100.00;102493.09;7397451;19;20948;-54
2023/01/21 05:38:37;;;;;;;43.50;18.80;;;;;;;0.93;100.00;102500.59;7394900;19;20447;-57
2023/01/21 05:41:09;;;;;;;45.03;17.17;;;;;;;0.80;100.00;102505.97;7398409;19;20434;-55
2023/01/21 05:43:39;;;;;;;44.13;18.00;;;;;;;0.83;100.00;102511.41;7395086;19;20423;-58
2023/01/21 05:46:08;;;;;;;40.93;16.73;;;;;;;0.92;100.00;102519.13;7396743;19;20946;-58
2023/01/21 05:48:38;;;;;;;37.23;16.87;;;;;;;0.86;100.00;102523.56;7394736;19;20426;-55
2023/01/21 05:51:07;;;;;;;37.30;16.70;;;;;;;1.00;100.00;102533.56;7397221;19;20916;-57
2023/01/21 05:53:37;;;;;;;39.60;15.30;;;;;;;0.86;100.00;102541.34;7394704;19;21050;-58
2023/01/21 05:56:09;;;;;;;43.47;17.27;;;;;;;0.74;100.00;102544.34;7397044;19;20481;-59
2023/01/21 05:58:38;;;;;;;32.63;13.80;;;;;;;0.92;100.00;102547.09;7394641;19;20427;-57
2023/01/21 06:01:08;;;;;;;40.40;16.63;;;;;;;0.93;100.00;102552.31;7397715;19;20403;-57
2023/01/21 06:03:37;;;;;;;45.43;17.80;;;;;;;1.04;100.00;102544.97;7394223;19;20979;-54
2023/01/21 06:06:09;;;;;;;45.50;17.00;;;;;;;1.05;100.00;102551.88;7396380;19;20383;-57
2023/01/21 06:08:38;;;;;;;45.37;18.40;;;;;;;0.92;100.00;102560.69;7394971;19;20446;-55
2023/01/21 06:11:10;;;;;;;38.63;17.20;;;;;;;0.73;100.00;102564.47;7397761;19;20763;-57
2023/01/21 06:13:40;;;;;;;52.23;20.13;;;;;;;0.87;100.00;102566.03;7394304;19;20433;-57
2023/01/21 06:16:09;;;;;;;48.37;18.50;;;;;;;1.04;100.00;102567.88;7395725;19;20411;-56
2023/01/21 06:18:39;;;;;;;49.93;21.13;;;;;;;1.31;100.00;102561.41;7393937;19;20801;-59
2023/01/21 06:21:08;;;;;;;51.60;21.37;;;;;;;1.15;100.00;102569.94;7397173;19;20408;-58
2023/01/21 06:23:37;;;;;;;50.80;20.47;;;;;;;0.93;100.00;102585.38;7393912;19;20471;-60
2023/01/21 06:26:10;;;;;;;53.03;20.50;;;;;;;1.31;100.00;102581.78;7395559;19;20392;-55
2023/01/21 06:28:39;;;;;;;52.40;19.80;;;;;;;1.14;100.00;102588.47;7393569;19;20417;-57
2023/01/21 06:31:09;;;;;;;45.23;17.60;;;;;;;1.06;100.00;102591.81;7396832;19;20399;-59
2023/01/21 06:33:38;;;;;;;40.57;17.57;;;;;;;1.28;100.00;102591.63;7393216;19;20414;-57
2023/01/21 06:36:08;;;;;;;53.50;20.07;;;;;;;1.32;100.00;102597.19;7395914;19;20383;-58
2023/01/21 06:38:38;;;;;;;47.87;20.47;;;;;;;1.17;100.00;102611.69;7393174;19;20423;-59
2023/01/21 06:41:10;;;;;;;46.87;18.80;;;;;;;0.89;100.00;102605.22;7396623;19;20400;-58
2023/01/21 06:43:39;;;;;;;45.80;18.10;;;;;;;0.72;100.00;102610.97;7393325;19;20420;-58
2023/01/21 06:46:09;;;;;;;45.57;19.07;;;;;;;1.22;100.00;102607.09;7395619;19;20397;-60
2023/01/21 06:48:38;;;;;;;41.90;17.80;;;;;;;1.23;100.00;102606.34;7393183;19;20406;-58
2023/01/21 06:51:08;;;;;;;60.27;24.43;;;;;;;1.10;100.00;102615.94;7395922;19;20389;-57
2023/01/21 06:53:38;;;;;;;49.33;20.60;;;;;;;1.40;100.00;102620.03;7392846;19;21002;-57
2023/01/21 06:56:10;;;;;;;75.60;29.20;;;;;;;1.66;100.00;102625.41;7395113;19;20766;-58
2023/01/21 06:58:40;;;;;;;91.53;35.67;;;;;;;2.29;100.00;102622.66;7392905;19;20439;-57
2023/01/21 07:01:09;;;;;;;70.73;28.03;;;;;;;1.68;100.00;102651.91;7394861;19;20396;-56
2023/01/21 07:03:38;;;;;;;44.47;18.50;;;;;;;1.45;100.00;102657.94;7391221;19;20970;-58
2023/01/21 07:06:08;;;;;;;45.00;19.30;;;;;;;1.06;100.00;102675.72;7394720;19;20406;-57
2023/01/21 07:08:38;;;;;;;44.60;19.27;;;;;;;1.23;100.00;102679.22;7392423;19;20801;-53
2023/01/21 07:11:10;;;;;;;48.07;20.63;;;;;;;0.99;100.00;102686.84;7396820;19;20397;-56
2023/01/21 07:13:39;;;;;;;43.57;18.73;;;;;;;1.23;100.00;102685.19;7392635;19;20420;-58
2023/01/21 07:16:09;;;;;;;43.10;19.07;;;;;;;1.02;100.00;102699.00;7393594;19;20456;-63
2023/01/21 07:18:39;;;;;;;44.50;18.10;;;;;;;0.67;100.00;102713.00;7391652;19;20974;-54
2023/01/21 07:21:08;;;;;;;42.13;17.50;;;;;;;0.55;100.00;102720.88;7395089;19;20411;-60
2023/01/21 07:23:38;;;;;;;43.10;17.93;;;;;;;0.45;100.00;102722.34;7392110;19;20982;-55
2023/01/21 07:26:10;;;;;;;41.63;18.37;;;;;;;0.29;100.00;102724.75;7394783;19;20424;-55
2023/01/21 07:28:39;;;;;;;42.80;16.30;;;;;;;0.21;100.00;102722.97;7392901;19;20459;-61
2023/01/21 07:31:09;;;;;;;41.93;16.83;;;;;;;0.24;100.00;102723.31;7395990;19;20398;-61
2023/01/21 07:33:38;;;;;;;44.40;17.47;;;;;;;0.22;100.00;102715.56;7392318;19;20435;-60
2023/01/21 07:36:08;;;;;;;46.40;18.53;;;;;;;0.19;100.00;102711.72;7394585;19;20395;-60
2023/01/21 07:38:38;;;;;;;48.03;18.80;;;;;;;0.17;100.00;102703.97;7392599;19;20809;-61
2023/01/21 07:41:10;;;;;;;40.43;17.00;;;;;;;0.19;100.00;102707.56;7394890;19;20406;-60
2023/01/21 07:43:39;;;;;;;46.53;18.57;;;;;;;0.19;100.00;102706.66;7391551;19;21010;-60
2023/01/21 07:46:09;;;;;;;47.53;19.97;;;;;;;0.13;100.00;102706.84;7393744;19;20467;-61
2023/01/21 07:48:38;;;;;;;45.70;17.70;;;;;;;0.15;100.00;102702.84;7390411;19;20438;-61
2023/01/21 07:51:08;;;;;;;43.10;16.93;;;;;;;0.16;100.00;102701.22;7394359;19;20382;-60
2023/01/21 07:53:37;;;;;;;59.40;18.90;;;;;;;0.07;100.00;102702.00;7390481;19;21048;-60
2023/01/21 07:56:10;;;;;;;49.20;18.30;;;;;;;0.18;100.00;102709.91;7393404;19;20407;-60
2023/01/21 07:58:40;;;;;;;48.43;19.03;;;;;;;0.07;100.00;102707.06;7390833;19;20431;-60
2023/01/21 08:01:10;;;;;;;57.07;20.67;;;;;;;0.55;100.00;102701.44;7393779;19;20411;-60
2023/01/21 08:03:40;;;;;;;54.33;18.50;;;;;;;0.48;100.00;102698.94;7389644;19;20459;-60
2023/01/21 08:06:09;;;;;;;59.30;19.80;;;;;;;0.52;100.00;102696.03;7393112;19;20399;-61
2023/01/21 08:08:39;;;;;;;54.23;21.57;;;;;;;0.79;100.00;102693.16;7390028;19;20449;-60
2023/01/21 08:11:11;;;;;;;52.47;18.23;;;;;;;0.50;100.00;102697.47;7393922;19;20420;-61
2023/01/21 08:13:40;;;;;;;55.23;19.40;;;;;;;0.16;100.00;102696.16;7394056;19;20443;-60
2023/01/21 08:16:10;;;;;;;48.30;17.80;;;;;;;0.19;100.00;102689.78;7399734;19;20935;-59
2023/01/21 08:18:40;;;;;;;53.60;17.67;;;;;;;0.09;100.00;102690.38;7397561;19;20413;-60
2023/01/21 08:21:09;;;;;;;48.13;16.35;;;;;;;0.03;100.00;102698.91;7401132;19;20404;-60
2023/01/21 08:23:38;;;;;;;45.67;17.07;;;;;;;0.06;100.00;102699.28;7397591;19;20209;-60
2023/01/21 08:26:10;;;;;;;69.50;25.00;;;;;;;0.23;100.00;102702.13;7396747;19;20400;-58
2023/01/21 08:28:40;;;;;;;55.93;21.97;;;;;;;0.36;100.00;102701.88;7393199;19;20684;-60
2023/01/21 08:31:12;;;;;;;53.03;20.37;;;;;;;0.60;100.00;102707.03;7400603;19;20383;-60
2023/01/21 08:33:41;;;;;;;55.83;21.67;;;;;;;0.61;100.00;102703.78;7397319;19;20523;-58
2023/01/21 08:36:11;;;;;;;50.63;17.57;;;;;;;0.57;100.00;102715.25;7399370;19;20166;-59
2023/01/21 08:38:42;;;;;;;40.73;16.03;;;;;;;0.36;100.00;102719.66;7396807;19;20792;-60
2023/01/21 08:41:15;;;;;;;38.07;15.23;;;;;;;0.39;100.00;102721.66;7400100;19;21024;-59
2023/01/21 08:43:44;;;;;;;39.80;15.40;;;;;;;0.22;100.00;102730.78;7396781;19;20427;-59
2023/01/21 08:46:14;;;;;;;40.03;14.93;;;;;;;0.23;100.00;102736.75;7399120;19;20936;-59
2023/01/21 08:48:43;;;;;;;37.30;15.53;;;;;;;0.13;100.00;102738.25;7396322;19;20418;-60
2023/01/21 08:51:13;;;;;;;38.30;14.70;;;;;;;0.03;100.00;102732.81;7400125;19;20414;-60
2023/01/21 08:53:42;;;;;;;36.50;14.77;;;;;;;-0.01;100.00;102741.72;7396633;19;20927;-59
2023/01/21 08:56:14;;;;;;;38.10;15.43;;;;;;;0.01;100.00;102752.06;7398405;19;20429;-60
2023/01/21 08:58:44;;;;;;;39.43;15.23;;;;;;;0.03;100.00;102758.19;7396459;19;20426;-60
2023/01/21 09:01:15;;;;;;;40.72;15.13;;;;;;;0.00;100.00;102765.47;7399375;19;20415;-59
2023/01/21 09:03:45;;;;;;;38.80;15.03;;;;;;;0.07;100.00;102773.06;7396238;19;20237;-64
2023/01/21 09:06:14;;;;;;;41.97;14.25;;;;;;;0.02;100.00;102774.16;7398402;19;20379;-59
2023/01/21 09:08:43;;;;;;;39.03;14.40;;;;;;;0.04;100.00;102777.78;7393887;19;20194;-59
2023/01/21 09:11:15;;;;;;;36.53;14.33;;;;;;;0.08;100.00;102781.56;7398270;19;20407;-59
2023/01/21 09:13:46;;;;;;;37.97;14.70;;;;;;;0.08;100.00;102784.13;7397157;19;20411;-59
2023/01/21 09:16:17;;;;;;;38.47;14.80;;;;;;;0.19;100.00;102790.44;7395682;19;20788;-59
2023/01/21 09:18:47;;;;;;;35.50;13.60;;;;;;;0.21;100.00;102792.44;7395046;19;21010;-59
2023/01/21 09:21:17;;;;;;;40.65;14.57;;;;;;;0.26;100.00;102800.59;7396494;19;20397;-57
2023/01/21 09:23:47;;;;;;;35.07;13.67;;;;;;;0.15;100.00;102794.25;7397032;19;20198;-58
2023/01/21 09:26:20;;;;;;;37.53;14.93;;;;;;;0.08;100.00;102799.34;7395895;19;20939;-58
2023/01/21 09:28:55;;;;;;;33.80;13.67;;;;;;;0.15;100.00;102801.00;7394500;19;20448;-57
2023/01/21 09:31:27;;;;;;;37.20;14.07;;;;;;;0.21;100.00;102806.78;7399212;19;20399;-59
2023/01/21 09:33:59;;;;;;;34.47;13.48;;;;;;;0.11;100.00;102813.31;7395709;19;21226;-60
2023/01/21 09:36:30;;;;;;;32.73;12.80;;;;;;;0.25;100.00;102814.94;7396514;19;20186;-60
2023/01/21 09:39:00;;;;;;;38.50;15.50;;;;;;;0.27;100.00;102822.72;7386993;19;20470;-63
2023/01/21 09:41:37;;;;;;;42.20;13.90;;;;;;;0.33;100.00;102831.06;7397245;19;20443;-62
2023/01/21 09:44:15;;;;;;;39.60;14.20;;;;;;;0.37;100.00;102833.22;7394588;19;20453;-62
2023/01/21 09:46:48;;;;;;;34.33;13.90;;;;;;;0.35;100.00;102827.06;7394620;19;20399;-64
2023/01/21 09:49:21;;;;;;;32.45;13.20;;;;;;;0.37;100.00;102838.28;7387764;19;20459;-64
2023/01/21 09:51:54;;;;;;;36.55;14.13;;;;;;;0.35;100.00;102844.84;7390454;19;20155;-63
2023/01/21 09:54:27;;;;;;;38.77;14.30;;;;;;;0.36;100.00;102851.72;7390877;19;20198;-63
2023/01/21 09:57:19;;;;;;;35.13;14.83;;;;;;;0.37;100.00;102853.53;7392951;19;20413;-64
2023/01/21 10:00:04;;;;;;;38.30;14.70;;;;;;;0.44;100.00;102861.88;7389630;19;20438;-63
2023/01/21 10:02:39;;;;;;;41.37;15.70;;;;;;;0.49;100.00;102859.16;7392679;19;20490;-64
2023/01/21 10:05:32;;;;;;;36.27;14.00;;;;;;;0.48;100.00;102864.06;7394573;19;20409;-63
2023/01/21 10:08:07;;;;;;;40.93;14.90;;;;;;;0.50;100.00;102863.50;7394300;19;20432;-63
2023/01/21 10:10:43;;;;;;;36.93;14.33;;;;;;;0.47;100.00;102875.84;7394119;19;20427;-63
2023/01/21 10:13:27;;;;;;;52.40;16.67;;;;;;;0.59;100.00;102873.84;7396075;19;20434;-63
2023/01/21 10:16:02;;;;;;;46.23;16.17;;;;;;;0.66;100.00;102883.06;7396528;19;20399;-63
2023/01/21 10:18:34;;;;;;;37.33;15.30;;;;;;;0.60;100.00;102879.81;7390648;19;21028;-61
2023/01/21 10:21:09;;;;;;;40.00;15.47;;;;;;;0.69;100.00;102882.50;7387288;19;20423;-62
2023/01/21 10:23:42;;;;;;;41.60;15.57;;;;;;;0.63;100.00;102876.00;7390473;19;20945;-62
2023/01/21 10:26:15;;;;;;;39.30;15.30;;;;;;;0.66;100.00;102876.34;7391921;19;20398;-63
2023/01/21 10:28:50;;;;;;;43.90;16.27;;;;;;;0.65;100.00;102877.09;7388078;19;21068;-62
2023/01/21 10:31:22;;;;;;;38.67;15.83;;;;;;;0.66;100.00;102881.44;7392626;19;20780;-62
2023/01/21 10:33:52;;;;;;;42.60;16.90;;;;;;;0.69;100.00;102883.44;7388482;19;20414;-62
2023/01/21 10:36:35;;;;;;;36.33;15.80;;;;;;;0.72;100.00;102880.34;7389282;19;20441;-63
2023/01/21 10:39:10;;;;;;;38.58;16.35;;;;;;;0.71;100.00;102886.16;7388607;19;20496;-62
2023/01/21 10:41:54;;;;;;;39.63;15.80;;;;;;;0.75;100.00;102888.31;7392796;19;20154;-62
2023/01/21 10:44:30;;;;;;;36.63;14.03;;;;;;;0.72;100.00;102891.38;7387252;19;20431;-62
2023/01/21 10:47:05;;;;;;;34.50;15.17;;;;;;;0.87;100.00;102886.28;7391827;19;20398;-62
2023/01/21 10:49:46;;;;;;;32.30;14.00;;;;;;;0.85;100.00;102878.47;7387373;19;21331;-63
2023/01/21 10:52:18;;;;;;;39.53;16.20;;;;;;;0.81;100.00;102881.38;7389459;19;20444;-63
2023/01/21 10:54:52;;;;;;;36.00;14.57;;;;;;;0.79;100.00;102881.22;7392216;19;20446;-62
2023/01/21 10:57:34;;;;;;;43.60;16.00;;;;;;;1.31;100.00;102879.38;7388983;19;20460;-62
2023/01/21 11:00:07;;;;;;;66.40;27.00;;;;;;;1.68;100.00;102875.88;7390836;19;20199;-62
2023/01/21 11:02:37;;;;;;;39.20;15.27;;;;;;;1.56;100.00;102889.78;7388493;19;20402;-62
2023/01/21 11:05:07;;;;;;;41.07;18.50;;;;;;;1.55;100.00;102898.16;7391537;19;20479;-62
2023/01/21 11:07:41;;;;;;;37.90;15.50;;;;;;;1.55;100.00;102903.25;7387825;19;20419;-62
2023/01/21 11:10:14;;;;;;;38.37;17.67;;;;;;;1.89;100.00;102901.91;7390047;19;20469;-62
2023/01/21 11:12:44;;;;;;;32.87;14.83;;;;;;;1.71;100.00;102911.88;7388081;19;21022;-62
2023/01/21 11:15:18;;;;;;;35.67;14.07;;;;;;;1.57;100.00;102922.13;7388122;19;20429;-62
2023/01/21 11:17:52;;;;;;;32.70;12.50;;;;;;;1.60;100.00;102925.03;7388390;19;20456;-62
2023/01/21 11:20:25;;;;;;;32.17;13.63;;;;;;;1.53;100.00;102932.72;7388374;19;20517;-61
2023/01/21 11:22:54;;;;;;;31.70;14.57;;;;;;;1.55;100.00;102933.78;7387797;19;20414;-62
2023/01/21 11:25:36;;;;;;;29.17;13.60;;;;;;;1.57;100.00;102942.47;7389742;19;20414;-62
2023/01/21 11:28:06;;;;;;;33.67;13.83;;;;;;;1.64;100.00;102944.97;7387199;19;20423;-62
2023/01/21 11:30:40;;;;;;;32.80;14.97;;;;;;;1.64;100.00;102957.72;7389089;19;20443;-63
2023/01/21 11:33:26;;;;;;;32.37;14.70;;;;;;;1.56;100.00;102967.03;7387591;19;20447;-62
2023/01/21 11:35:57;;;;;;;54.83;22.13;;;;;;;1.67;100.00;102970.81;7390632;19;20400;-63